TimeEDT,TemperatureF,Dew PointF,Humidity,Sea Level PressureIn,VisibilityMPH,Wind Direction,Wind SpeedMPH,Gust SpeedMPH,PrecipitationIn,Events,Conditions,WindDirDegrees,DateUTC
12:15 AM,48.2,48.2,100,29.92,-9999.0,Calm,Calm,-,N/A,,Overcast,0,2013-05-23 04:15:00
12:35 AM,48.2,48.2,100,29.92,-9999.0,Calm,Calm,-,N/A,,Overcast,0,2013-05-23 04:35:00
12:55 AM,48.2,48.2,100,29.92,-9999.0,SSE,3.5,-,N/A,,Overcast,150,2013-05-23 04:55:00
1:15 AM,48.2,48.2,100,29.91,-9999.0,Calm,Calm,-,N/A,,Overcast,0,2013-05-23 05:15:00
1:55 AM,48.2,48.2,100,29.92,-9999.0,Calm,Calm,-,N/A,,Overcast,0,2013-05-23 05:55:00
2:15 AM,48.2,48.2,100,29.91,-9999.0,South,3.5,-,N/A,,Overcast,170,2013-05-23 06:15:00
2:35 AM,48.2,48.2,100,29.90,-9999.0,South,3.5,-,N/A,,Overcast,180,2013-05-23 06:35:00
2:55 AM,48.2,46.4,93,29.89,-9999.0,Calm,Calm,-,N/A,,Overcast,0,2013-05-23 06:55:00
3:15 AM,48.2,46.4,93,29.88,-9999.0,Calm,Calm,-,N/A,,Overcast,0,2013-05-23 07:15:00
3:35 AM,48.2,46.4,93,29.88,-9999.0,Calm,Calm,-,N/A,,Overcast,0,2013-05-23 07:35:00
3:55 AM,48.2,46.4,93,29.88,-9999.0,SSW,3.5,-,N/A,,Overcast,210,2013-05-23 07:55:00
4:15 AM,48.2,46.4,93,29.88,-9999.0,South,3.5,-,N/A,,Overcast,190,2013-05-23 08:15:00
4:35 AM,48.2,46.4,93,29.86,-9999.0,Calm,Calm,-,N/A,,Overcast,0,2013-05-23 08:35:00
4:55 AM,48.2,46.4,93,29.88,-9999.0,Calm,Calm,-,N/A,,Overcast,0,2013-05-23 08:55:00
5:35 AM,48.2,46.4,93,29.87,-9999.0,Calm,Calm,-,N/A,,Overcast,0,2013-05-23 09:35:00
5:55 AM,48.2,46.4,93,29.87,-9999.0,SSE,3.5,-,N/A,,Overcast,160,2013-05-23 09:55:00
6:15 AM,48.2,46.4,93,29.88,-9999.0,South,4.6,-,N/A,,Overcast,180,2013-05-23 10:15:00
6:35 AM,48.2,46.4,93,29.88,-9999.0,SSW,3.5,-,N/A,,Overcast,200,2013-05-23 10:35:00
6:55 AM,48.2,46.4,93,29.89,-9999.0,South,3.5,-,N/A,,Overcast,190,2013-05-23 10:55:00
7:15 AM,48.2,46.4,93,29.88,-9999.0,South,4.6,-,N/A,,Overcast,190,2013-05-23 11:15:00
7:35 AM,48.2,48.2,100,29.89,-9999.0,South,4.6,-,N/A,,Overcast,180,2013-05-23 11:35:00
7:55 AM,48.2,48.2,100,29.88,-9999.0,South,3.5,-,N/A,,Overcast,170,2013-05-23 11:55:00
8:15 AM,48.2,48.2,100,29.88,-9999.0,South,5.8,-,N/A,,Overcast,190,2013-05-23 12:15:00
8:35 AM,50.0,48.2,94,29.89,-9999.0,SW,6.9,-,N/A,,Overcast,220,2013-05-23 12:35:00
8:55 AM,50.0,48.2,94,29.88,-9999.0,South,3.5,-,N/A,,Overcast,190,2013-05-23 12:55:00
9:15 AM,51.8,50.0,94,29.88,-9999.0,SSW,4.6,-,N/A,,Overcast,200,2013-05-23 13:15:00
9:35 AM,51.8,50.0,94,29.87,-9999.0,SSW,5.8,-,0.01,,Overcast,210,2013-05-23 13:35:00
9:55 AM,51.8,50.0,94,29.86,-9999.0,SSW,3.5,-,0.01,,Overcast,200,2013-05-23 13:55:00
10:15 AM,53.6,51.8,94,29.86,-9999.0,SW,5.8,-,N/A,,Overcast,220,2013-05-23 14:15:00
10:35 AM,53.6,51.8,94,29.86,-9999.0,SSW,5.8,-,N/A,,Overcast,210,2013-05-23 14:35:00
10:55 AM,55.4,51.8,88,29.85,-9999.0,South,6.9,-,N/A,,Overcast,170,2013-05-23 14:55:00
11:15 AM,55.4,53.6,94,29.85,-9999.0,SSW,5.8,-,N/A,,Overcast,210,2013-05-23 15:15:00
11:35 AM,57.2,53.6,88,29.85,-9999.0,South,4.6,-,N/A,,Overcast,180,2013-05-23 15:35:00
11:55 AM,57.2,53.6,88,29.84,-9999.0,South,5.8,-,N/A,,Overcast,190,2013-05-23 15:55:00
12:15 PM,59.0,55.4,88,29.84,-9999.0,SSW,8.1,-,N/A,,Overcast,210,2013-05-23 16:15:00
12:35 PM,60.8,55.4,82,29.83,-9999.0,SSW,6.9,-,N/A,,Overcast,210,2013-05-23 16:35:00
12:55 PM,60.8,57.2,88,29.83,-9999.0,South,5.8,-,N/A,,Overcast,180,2013-05-23 16:55:00
1:15 PM,62.6,57.2,82,29.83,-9999.0,South,6.9,-,N/A,,Overcast,190,2013-05-23 17:15:00
1:35 PM,62.6,59.0,88,29.81,-9999.0,SSW,6.9,-,N/A,,Overcast,200,2013-05-23 17:35:00
1:55 PM,62.6,59.0,88,29.81,-9999.0,South,6.9,-,N/A,,Overcast,190,2013-05-23 17:55:00
2:15 PM,62.6,59.0,88,29.81,-9999.0,SSW,8.1,16.1,N/A,,Overcast,200,2013-05-23 18:15:00
2:35 PM,62.6,59.0,88,29.80,-9999.0,South,5.8,-,N/A,,Overcast,190,2013-05-23 18:35:00
2:55 PM,62.6,59.0,88,29.79,-9999.0,South,9.2,-,N/A,,Overcast,180,2013-05-23 18:55:00
3:15 PM,64.4,59.0,83,29.79,-9999.0,South,9.2,-,N/A,,Overcast,180,2013-05-23 19:15:00
3:35 PM,64.4,59.0,83,29.79,-9999.0,SSW,8.1,-,N/A,,Overcast,200,2013-05-23 19:35:00
3:55 PM,64.4,59.0,83,29.79,-9999.0,SSW,8.1,-,N/A,,Mostly Cloudy,200,2013-05-23 19:55:00
4:15 PM,64.4,59.0,83,29.79,-9999.0,South,5.8,-,N/A,,Mostly Cloudy,180,2013-05-23 20:15:00
4:35 PM,64.4,59.0,83,29.79,-9999.0,South,6.9,-,N/A,,Partly Cloudy,180,2013-05-23 20:35:00
4:55 PM,62.6,59.0,88,29.80,-9999.0,South,8.1,-,N/A,,Unknown,190,2013-05-23 20:55:00
5:15 PM,62.6,59.0,88,29.80,-9999.0,SSW,8.1,-,N/A,,Unknown,200,2013-05-23 21:15:00
5:35 PM,62.6,60.8,94,29.80,-9999.0,South,5.8,-,0.01,,Unknown,190,2013-05-23 21:35:00
5:55 PM,62.6,60.8,94,29.79,-9999.0,SSW,4.6,-,0.02,,Mostly Cloudy,200,2013-05-23 21:55:00
6:15 PM,62.6,60.8,94,29.79,-9999.0,South,4.6,-,N/A,,Overcast,190,2013-05-23 22:15:00
6:35 PM,60.8,60.8,100,29.78,-9999.0,South,4.6,-,N/A,,Overcast,180,2013-05-23 22:35:00
6:55 PM,60.8,60.8,100,29.78,-9999.0,South,6.9,-,N/A,,Overcast,190,2013-05-23 22:55:00
7:15 PM,60.8,60.8,100,29.78,-9999.0,SSW,6.9,-,N/A,,Overcast,200,2013-05-23 23:15:00
7:35 PM,60.8,60.8,100,29.78,-9999.0,South,6.9,-,N/A,,Overcast,190,2013-05-23 23:35:00
7:55 PM,62.6,60.8,94,29.79,-9999.0,SSW,6.9,-,N/A,,Overcast,200,2013-05-23 23:55:00
8:15 PM,62.6,60.8,94,29.79,-9999.0,SSW,5.8,-,N/A,,Overcast,200,2013-05-24 00:15:00
8:35 PM,62.6,60.8,94,29.79,-9999.0,SSW,6.9,-,N/A,,Overcast,200,2013-05-24 00:35:00
8:55 PM,62.6,60.8,94,29.79,-9999.0,South,6.9,-,N/A,,Overcast,190,2013-05-24 00:55:00
9:15 PM,60.8,60.8,100,29.79,-9999.0,SSW,8.1,-,0.01,,Overcast,200,2013-05-24 01:15:00
9:35 PM,60.8,60.8,100,29.79,-9999.0,South,6.9,-,0.01,,Overcast,190,2013-05-24 01:35:00
9:55 PM,60.8,60.8,100,29.79,-9999.0,South,8.1,-,0.01,,Overcast,190,2013-05-24 01:55:00
10:15 PM,60.8,59.0,94,29.78,-9999.0,SSW,8.1,-,0.01,,Overcast,200,2013-05-24 02:15:00
10:35 PM,60.8,59.0,94,29.78,-9999.0,South,8.1,-,0.01,,Overcast,190,2013-05-24 02:35:00
10:55 PM,62.6,60.8,94,29.78,-9999.0,South,6.9,-,0.01,,Overcast,190,2013-05-24 02:55:00
11:15 PM,62.6,60.8,94,29.78,-9999.0,South,8.1,-,N/A,,Overcast,190,2013-05-24 03:15:00
11:35 PM,62.6,60.8,94,29.78,-9999.0,South,5.8,-,0.01,,Overcast,190,2013-05-24 03:35:00
11:55 PM,60.8,59.0,94,29.78,-9999.0,South,8.1,-,0.01,,Overcast,190,2013-05-24 03:55:00